Terminal Aerodrome Forecast
Issued by NWS Austin/San Antonio, TX

Current Version | Previous Version | Text Only | Print | Product List | Glossary Off
Versions: 1 2 3 4 5 6 7 8 9 10 11 12 13 14 15 16 17 18 19 20

000
FTUS44 KEWX 250823 AAB
TAFAUS
TAF AMD
KAUS 250823Z 2508/2612 12003KT 3SM BR OVC005
     FM251400 13005KT 6SM BR VCSH OVC007
     FM251500 11007KT P6SM VCSH BKN015
      TEMPO 2515/2519 5SM TSRA BKN028CB
     FM251900 08005KT P6SM BKN040 PROB30 2519/2601 -TSRA BKN035CB
     FM260100 03005KT P6SM -SHRA BKN030=

USA.gov is the U.S. government's official web portal to all federal, state and local government web resources and services.